createdAt,value
2018-11-25T00:03:05.749Z,10.83
2018-11-25T00:08:08.291Z,10.33
2018-11-25T00:13:10.821Z,10.17
2018-11-25T00:18:13.346Z,13.70
2018-11-25T00:23:15.870Z,13.57
2018-11-25T00:28:19.189Z,11.50
2018-11-25T00:33:21.734Z,10.33
2018-11-25T00:38:24.268Z,11.23
2018-11-25T00:43:26.873Z,11.50
2018-11-25T00:48:29.430Z,14.03
2018-11-25T00:53:31.949Z,13.30
2018-11-25T00:58:34.473Z,13.60
2018-11-25T01:03:37.014Z,14.97
2018-11-25T01:08:39.541Z,15.87
2018-11-25T01:13:42.081Z,15.43
2018-11-25T01:18:44.591Z,15.20
2018-11-25T01:23:47.114Z,15.00
2018-11-25T01:28:49.675Z,14.10
2018-11-25T01:33:52.265Z,14.67
2018-11-25T01:38:54.788Z,14.10
2018-11-25T01:43:57.323Z,18.53
2018-11-25T01:48:59.953Z,17.93
2018-11-25T01:54:02.492Z,17.80
2018-11-25T01:59:05.065Z,19.07
2018-11-25T02:04:07.622Z,22.17
2018-11-25T02:09:10.149Z,19.53
2018-11-25T02:14:12.699Z,19.83
2018-11-25T02:19:15.227Z,21.63
2018-11-25T02:24:17.769Z,22.07
2018-11-25T02:29:20.300Z,20.03
2018-11-25T02:34:22.800Z,17.73
2018-11-25T02:39:25.329Z,19.73
2018-11-25T02:44:27.890Z,17.80
2018-11-25T02:49:30.417Z,15.13
2018-11-25T02:54:32.848Z,13.77
2018-11-25T02:59:35.393Z,15.03
2018-11-25T03:04:37.949Z,14.77
2018-11-25T03:09:40.497Z,13.57
2018-11-25T03:14:43.035Z,13.47
2018-11-25T03:19:45.576Z,12.50
2018-11-25T03:24:48.106Z,11.60
2018-11-25T03:29:50.612Z,10.80
2018-11-25T03:34:53.145Z,9.63
2018-11-25T03:39:55.698Z,9.30
2018-11-25T03:44:58.230Z,17.03
2018-11-25T03:50:00.802Z,13.63
2018-11-25T03:55:04.001Z,11.47
2018-11-25T04:00:12.694Z,10.70
2018-11-25T04:05:15.884Z,12.07
2018-11-25T04:10:18.724Z,11.87
2018-11-25T04:15:21.277Z,12.03
2018-11-25T04:20:23.793Z,13.67
2018-11-25T04:25:26.337Z,12.03
2018-11-25T04:30:28.873Z,13.43
2018-11-25T04:35:31.401Z,13.67
2018-11-25T04:40:33.921Z,16.03
2018-11-25T04:45:36.464Z,19.33
2018-11-25T04:50:39.012Z,21.80
2018-11-25T04:55:41.512Z,21.40
2018-11-25T05:00:44.012Z,19.60
2018-11-25T05:05:46.557Z,18.20
2018-11-25T05:10:49.102Z,15.97
2018-11-25T05:15:51.632Z,15.70
2018-11-25T05:20:54.176Z,15.90
2018-11-25T05:25:56.697Z,16.57
2018-11-25T05:30:59.244Z,17.80
2018-11-25T05:36:01.777Z,17.50
2018-11-25T05:41:04.372Z,20.30
2018-11-25T05:46:06.912Z,22.30
2018-11-25T05:51:09.443Z,22.37
2018-11-25T05:56:11.976Z,21.37
2018-11-25T06:01:14.517Z,21.10
2018-11-25T06:06:17.065Z,28.87
2018-11-25T06:11:19.606Z,31.67
2018-11-25T06:16:22.124Z,27.43
2018-11-25T06:21:24.647Z,28.87
2018-11-25T06:26:27.218Z,30.03
2018-11-25T06:31:29.737Z,25.83
2018-11-25T06:36:32.264Z,33.80
2018-11-25T06:41:34.825Z,39.47
2018-11-25T06:46:37.346Z,22.63
2018-11-25T06:51:40.161Z,29.70
2018-11-25T06:56:42.689Z,23.37
2018-11-25T07:01:45.205Z,26.80
2018-11-25T07:06:48.621Z,23.33
2018-11-25T07:11:51.161Z,28.03
2018-11-25T07:16:53.681Z,35.07
2018-11-25T07:21:56.209Z,36.60
2018-11-25T07:26:58.741Z,27.23
2018-11-25T07:32:01.264Z,25.47
2018-11-25T07:37:03.905Z,25.40
2018-11-25T07:42:06.450Z,25.57
2018-11-25T07:47:08.969Z,25.70
2018-11-25T07:52:11.493Z,24.13
2018-11-25T07:57:14.021Z,21.93
2018-11-25T08:02:16.568Z,17.40
2018-11-25T08:07:19.169Z,16.70
2018-11-25T08:12:21.716Z,23.47
2018-11-25T08:17:24.262Z,12.20
2018-11-25T08:22:26.836Z,11.37
2018-11-25T08:27:29.472Z,9.70
2018-11-25T08:32:32.087Z,9.77
2018-11-25T08:37:34.619Z,10.60
2018-11-25T08:42:37.202Z,14.03
2018-11-25T08:47:39.745Z,13.87
2018-11-25T08:52:43.161Z,14.90
2018-11-25T08:57:45.722Z,15.80
2018-11-25T09:02:49.010Z,15.47
2018-11-25T09:07:51.580Z,12.73
2018-11-25T09:12:56.339Z,13.37
2018-11-25T09:17:58.119Z,12.80
2018-11-25T09:23:00.649Z,13.10
2018-11-25T09:28:03.496Z,11.03
2018-11-25T09:33:05.932Z,10.93
2018-11-25T09:38:08.491Z,11.17
2018-11-25T09:43:11.100Z,12.20
2018-11-25T09:48:13.662Z,15.47
2018-11-25T09:53:16.204Z,12.50
2018-11-25T09:58:25.266Z,12.00
2018-11-25T10:03:21.542Z,12.80
2018-11-25T10:08:24.131Z,11.63
2018-11-25T10:13:26.729Z,12.00
2018-11-25T10:18:29.300Z,16.87
2018-11-25T10:23:31.860Z,12.60
2018-11-25T10:28:35.180Z,12.80
2018-11-25T10:33:37.745Z,12.03
2018-11-25T10:38:40.325Z,13.07
2018-11-25T10:43:42.865Z,10.60
2018-11-25T10:48:45.409Z,11.30
2018-11-25T10:53:48.959Z,10.40
2018-11-25T10:58:51.485Z,15.87
2018-11-25T11:03:55.556Z,18.03
2018-11-25T11:08:58.114Z,15.70
2018-11-25T11:14:00.648Z,16.73
2018-11-25T11:19:03.236Z,16.20
2018-11-25T11:24:05.810Z,10.30
2018-11-25T11:29:08.629Z,7.03
2018-11-25T11:34:11.158Z,5.00
2018-11-25T11:39:13.719Z,5.27
2018-11-25T11:44:17.002Z,5.03
2018-11-25T11:49:19.556Z,4.53
2018-11-25T11:54:22.084Z,4.90
2018-11-25T11:59:24.645Z,4.60
2018-11-25T12:04:27.266Z,4.47
2018-11-25T12:09:29.805Z,4.10
2018-11-25T12:14:32.377Z,3.77
2018-11-25T12:19:34.981Z,3.90
2018-11-25T12:24:37.559Z,3.43
2018-11-25T12:29:40.088Z,3.23
2018-11-25T12:34:42.673Z,5.50
2018-11-25T12:39:45.250Z,4.90
2018-11-25T12:44:47.822Z,4.60
2018-11-25T12:49:50.401Z,4.27
2018-11-25T12:54:52.975Z,5.00
2018-11-25T12:59:55.529Z,5.27
2018-11-25T13:04:58.049Z,4.50
2018-11-25T13:10:00.650Z,4.20
2018-11-25T13:15:03.272Z,4.57
2018-11-25T13:20:12.227Z,3.10
2018-11-25T13:25:15.785Z,4.70
2018-11-25T13:30:20.767Z,3.87
2018-11-25T13:35:24.016Z,4.27
2018-11-25T13:40:26.624Z,3.53
2018-11-25T13:45:29.281Z,4.57
2018-11-25T13:50:31.886Z,3.97
2018-11-25T13:55:34.479Z,4.27
2018-11-25T14:00:40.056Z,5.83
2018-11-25T14:05:42.601Z,4.37
2018-11-25T14:10:45.164Z,4.60
2018-11-25T14:15:48.388Z,3.90
2018-11-25T14:20:50.941Z,4.27
2018-11-25T14:25:54.222Z,3.93
2018-11-25T14:30:56.793Z,3.80
2018-11-25T14:35:59.337Z,4.70
2018-11-25T14:41:01.905Z,4.53
2018-11-25T14:46:04.683Z,5.17
2018-11-25T14:51:07.325Z,5.87
2018-11-25T14:56:09.861Z,6.10
2018-11-25T15:01:12.461Z,6.90
2018-11-25T15:06:15.054Z,7.30
2018-11-25T15:11:17.649Z,7.50
2018-11-25T15:16:20.236Z,7.47
2018-11-25T15:21:22.791Z,8.33
2018-11-25T15:26:25.464Z,8.53
2018-11-25T15:31:28.033Z,7.93
2018-11-25T15:36:30.616Z,8.73
2018-11-25T15:41:33.180Z,9.70
2018-11-25T15:46:35.762Z,8.73
2018-11-25T15:51:38.308Z,8.17
2018-11-25T15:56:40.944Z,8.43
2018-11-25T16:01:43.581Z,9.20
2018-11-25T16:06:46.124Z,10.10
2018-11-25T16:11:48.743Z,11.57
2018-11-25T16:16:51.372Z,9.80
2018-11-25T16:21:53.976Z,9.03
2018-11-25T16:26:56.534Z,11.07
2018-11-25T16:31:59.077Z,10.40
2018-11-25T16:37:01.663Z,10.13
2018-11-25T16:42:04.625Z,10.77
2018-11-25T16:47:07.302Z,11.43
2018-11-25T16:52:09.957Z,12.80
2018-11-25T16:57:12.620Z,11.80
2018-11-25T17:02:15.226Z,11.10
2018-11-25T17:07:18.466Z,10.60
2018-11-25T17:12:21.013Z,11.33
2018-11-25T17:17:23.619Z,10.90
2018-11-25T17:22:26.192Z,10.93
2018-11-25T17:27:28.742Z,11.30
2018-11-25T17:32:31.330Z,12.27
2018-11-25T17:37:33.965Z,11.43
2018-11-25T17:42:36.826Z,11.93
2018-11-25T17:47:39.481Z,11.57
2018-11-25T17:52:42.112Z,11.57
2018-11-25T17:57:44.747Z,12.00
2018-11-25T18:02:47.333Z,11.13
2018-11-25T18:07:49.902Z,13.77
2018-11-25T18:12:52.584Z,14.77
2018-11-25T18:18:01.054Z,13.03
2018-11-25T18:23:03.682Z,13.27
2018-11-25T18:28:06.889Z,13.07
2018-11-25T18:33:09.449Z,12.73
2018-11-25T18:38:14.000Z,14.33
2018-11-25T18:43:16.549Z,13.53
2018-11-25T18:48:19.188Z,13.43
2018-11-25T18:53:21.728Z,12.97
2018-11-25T18:58:26.233Z,13.80
2018-11-25T19:03:28.777Z,13.40
2018-11-25T19:08:31.329Z,15.07
2018-11-25T19:13:34.158Z,14.20
2018-11-25T19:18:37.724Z,13.60
2018-11-25T19:23:40.308Z,15.17
2018-11-25T19:28:42.867Z,14.83
2018-11-25T19:33:45.444Z,15.47
2018-11-25T19:38:48.041Z,15.27
2018-11-25T19:43:50.664Z,15.90
2018-11-25T19:54:05.525Z,16.43
2018-11-25T19:59:08.120Z,20.10
2018-11-25T20:04:10.782Z,15.53
2018-11-25T20:09:13.408Z,16.67
2018-11-25T20:14:15.966Z,16.33
2018-11-25T20:19:18.555Z,15.93
2018-11-25T20:24:21.491Z,18.53
2018-11-25T20:29:24.083Z,17.50
2018-11-25T20:34:26.661Z,14.83
2018-11-25T20:39:29.573Z,13.90
2018-11-25T20:44:32.197Z,13.40
2018-11-25T20:49:35.051Z,12.53
2018-11-25T20:54:37.624Z,12.70
2018-11-25T20:59:40.634Z,13.37
2018-11-25T21:04:43.222Z,13.67
2018-11-25T21:09:45.760Z,14.33
2018-11-25T21:14:48.432Z,13.53
2018-11-25T21:19:51.042Z,15.10
2018-11-25T21:24:53.645Z,13.60
2018-11-25T21:29:56.193Z,12.77
2018-11-25T21:34:58.997Z,14.13
2018-11-25T21:40:01.690Z,14.47
2018-11-25T21:45:04.673Z,13.57
2018-11-25T21:50:11.540Z,12.93
2018-11-25T21:55:15.434Z,14.43
2018-11-25T22:00:19.824Z,13.03
2018-11-25T22:05:24.863Z,13.27
2018-11-25T22:10:24.931Z,13.20
2018-11-25T22:15:27.485Z,13.17
2018-11-25T22:20:30.018Z,14.10
2018-11-25T22:25:32.572Z,13.87
2018-11-25T22:30:35.128Z,14.10
2018-11-25T22:35:37.683Z,14.63
2018-11-25T22:40:40.271Z,15.27
2018-11-25T22:45:42.994Z,16.07
2018-11-25T22:50:45.532Z,16.50
2018-11-25T22:55:48.084Z,17.57
2018-11-25T23:00:52.613Z,19.47
2018-11-25T23:07:07.429Z,18.40
2018-11-25T23:12:09.961Z,19.23
2018-11-25T23:17:12.521Z,23.07
2018-11-25T23:22:15.078Z,21.27
2018-11-25T23:27:17.656Z,18.50
2018-11-25T23:32:20.278Z,17.63
2018-11-25T23:37:22.821Z,18.67
2018-11-25T23:42:25.345Z,17.87
2018-11-25T23:47:27.882Z,18.43
2018-11-25T23:52:30.506Z,19.33
2018-11-25T23:57:34.519Z,20.87
